Time;durP1;ratioP1;P1;durP2;ratioP2;P2;SDS_P1;SDS_P2;PMS_P1;PMS_P2;Temp;Humidity;BMP_temperature;BMP_pressure;BME280_temperature;BME280_humidity;BME280_pressure;Samples;Min_cycle;Max_cycle;Signal;HPM_P1;HPM_P2
2022/01/05 00:00:07;;;;;;;10.02;1.00;;;6.40;94.10;;;;;;5051783;28;20462;-79
2022/01/05 00:02:33;;;;;;;6.70;1.10;;;6.40;94.20;;;;;;5052447;28;20032;-79
2022/01/05 00:04:59;;;;;;;7.32;0.70;;;6.40;94.20;;;;;;5052428;28;20033;-79
2022/01/05 00:07:24;;;;;;;8.35;1.17;;;6.50;94.20;;;;;;5051756;28;20029;-79
2022/01/05 00:09:50;;;;;;;10.38;0.80;;;6.40;94.00;;;;;;5052116;28;20468;-80
2022/01/05 00:12:15;;;;;;;15.00;1.23;;;6.40;94.30;;;;;;5052346;28;20035;-79
2022/01/05 00:14:41;;;;;;;8.68;1.40;;;6.40;93.90;;;;;;5052539;28;20470;-81
2022/01/05 00:17:07;;;;;;;11.55;1.02;;;6.40;94.00;;;;;;5051280;28;20488;-81
2022/01/05 00:19:34;;;;;;;11.63;1.27;;;6.50;94.00;;;;;;5052117;28;20021;-81
2022/01/05 00:22:00;;;;;;;11.10;1.02;;;6.50;94.00;;;;;;5053520;28;20037;-81
2022/01/05 00:24:26;;;;;;;7.45;0.63;;;6.60;93.90;;;;;;5061374;28;20029;-81
2022/01/05 00:26:51;;;;;;;11.63;1.00;;;6.60;93.60;;;;;;5055900;28;20071;-81
2022/01/05 00:29:17;;;;;;;12.20;1.27;;;6.50;93.50;;;;;;5055798;28;20464;-82
2022/01/05 00:31:43;;;;;;;14.70;1.50;;;6.60;93.60;;;;;;5055259;28;20061;-81
2022/01/05 00:34:08;;;;;;;9.23;1.20;;;6.50;93.30;;;;;;5062564;28;20025;-81
2022/01/05 00:36:34;;;;;;;9.65;0.98;;;6.50;93.30;;;;;;5018492;28;20033;-80
2022/01/05 00:38:59;;;;;;;9.75;1.80;;;6.50;93.40;;;;;;5033956;28;20033;-81
2022/01/05 00:41:25;;;;;;;9.50;0.95;;;6.40;93.70;;;;;;5024752;28;20025;-80
2022/01/05 00:43:51;;;;;;;6.47;1.05;;;6.40;93.50;;;;;;5035045;28;20021;-80
2022/01/05 00:46:16;;;;;;;13.40;0.75;;;6.30;93.40;;;;;;5032127;28;20033;-80
2022/01/05 00:48:42;;;;;;;10.18;0.95;;;6.30;93.40;;;;;;5045244;28;20032;-80
2022/01/05 00:51:08;;;;;;;14.70;1.52;;;6.20;93.60;;;;;;5055232;28;20533;-80
2022/01/05 00:53:35;;;;;;;10.07;1.13;;;6.20;93.80;;;;;;5055008;28;20029;-80
2022/01/05 00:56:00;;;;;;;11.65;1.10;;;6.20;93.50;;;;;;5054957;28;20025;-80
2022/01/05 00:58:26;;;;;;;11.23;1.00;;;6.10;93.90;;;;;;5054920;28;20103;-80
2022/01/05 01:00:52;;;;;;;9.65;1.35;;;6.10;93.50;;;;;;5054352;28;20039;-80
2022/01/05 01:03:18;;;;;;;18.35;1.25;;;6.00;93.40;;;;;;5055080;28;20021;-81
2022/01/05 01:05:44;;;;;;;13.05;1.10;;;6.00;93.50;;;;;;5054651;28;20071;-80
2022/01/05 01:08:10;;;;;;;9.73;0.88;;;6.00;93.40;;;;;;5054746;28;20025;-79
2022/01/05 01:10:36;;;;;;;12.10;1.00;;;6.00;93.30;;;;;;5054646;28;20067;-80
2022/01/05 01:13:02;;;;;;;5.50;0.77;;;5.90;93.20;;;;;;5054571;28;20464;-80
2022/01/05 01:15:28;;;;;;;12.10;1.25;;;5.90;93.10;;;;;;5054383;28;20021;-80
2022/01/05 01:17:53;;;;;;;15.15;1.17;;;5.80;93.20;;;;;;5055011;28;20025;-80
2022/01/05 01:20:20;;;;;;;9.70;1.27;;;5.80;93.40;;;;;;5054421;28;20041;-79
2022/01/05 01:22:47;;;;;;;10.80;1.10;;;5.70;93.60;;;;;;5054596;28;20033;-79
2022/01/05 01:25:12;;;;;;;7.82;1.17;;;5.70;93.80;;;;;;5054701;28;20465;-80
2022/01/05 01:27:40;;;;;;;7.88;0.80;;;5.60;94.00;;;;;;5054391;28;20060;-80
2022/01/05 01:30:06;;;;;;;10.13;1.23;;;5.50;94.10;;;;;;5055605;28;20037;-80
2022/01/05 01:32:32;;;;;;;12.00;1.35;;;5.40;94.30;;;;;;5066986;28;20029;-80
2022/01/05 01:34:58;;;;;;;6.60;1.05;;;5.40;94.70;;;;;;5054140;28;20020;-80
2022/01/05 01:37:24;;;;;;;13.60;1.48;;;5.40;94.60;;;;;;5054086;28;20069;-83
2022/01/05 01:39:49;;;;;;;11.73;1.20;;;5.40;94.70;;;;;;5054373;28;20041;-83
2022/01/05 01:42:15;;;;;;;13.15;1.02;;;5.40;94.70;;;;;;5054258;28;20033;-83
2022/01/05 01:44:40;;;;;;;11.05;1.25;;;5.30;94.40;;;;;;5053948;28;20029;-84
2022/01/05 01:47:06;;;;;;;10.77;1.10;;;5.30;94.40;;;;;;5054488;28;20029;-84
2022/01/05 01:49:32;;;;;;;8.80;1.33;;;5.30;94.10;;;;;;5053919;28;20025;-83
2022/01/05 01:51:57;;;;;;;8.43;0.77;;;5.30;93.90;;;;;;5054153;28;20107;-84
2022/01/05 01:54:23;;;;;;;9.02;0.77;;;5.30;93.90;;;;;;5053719;28;20117;-84
2022/01/05 01:56:51;;;;;;;6.50;1.13;;;5.30;93.80;;;;;;5054025;28;20041;-83
2022/01/05 01:59:17;;;;;;;9.25;1.40;;;5.30;93.80;;;;;;5053957;28;20048;-83
2022/01/05 02:01:43;;;;;;;9.93;1.13;;;5.40;93.80;;;;;;5053982;28;20369;-82
2022/01/05 02:04:08;;;;;;;10.07;1.10;;;5.40;93.80;;;;;;5053439;28;20029;-82
2022/01/05 02:06:34;;;;;;;12.27;1.27;;;5.40;93.80;;;;;;5053642;28;20492;-82
2022/01/05 02:09:00;;;;;;;12.70;1.50;;;5.40;93.90;;;;;;5053503;28;20052;-82
2022/01/05 02:11:26;;;;;;;8.65;1.20;;;5.40;93.80;;;;;;5053226;28;20394;-81
2022/01/05 02:13:52;;;;;;;13.32;2.10;;;5.40;93.80;;;;;;5053759;28;20036;-81
2022/01/05 02:16:20;;;;;;;12.48;1.42;;;5.40;93.80;;;;;;5053495;28;20033;-80
2022/01/05 02:18:58;;;;;;;11.30;1.17;;;5.30;93.90;;;;;;5031315;28;20025;-81
2022/01/05 02:21:24;;;;;;;12.82;1.30;;;5.30;93.80;;;;;;5052846;28;20040;-80
2022/01/05 02:23:50;;;;;;;15.27;1.50;;;5.20;94.10;;;;;;5053704;28;20013;-81
2022/01/05 02:26:16;;;;;;;12.00;1.50;;;5.20;94.30;;;;;;5053314;28;20017;-81
2022/01/05 02:28:42;;;;;;;13.98;1.45;;;5.20;94.40;;;;;;5053040;28;20469;-81
2022/01/05 02:31:08;;;;;;;17.77;3.08;;;5.10;94.40;;;;;;5052923;28;20025;-81
2022/01/05 02:33:34;;;;;;;16.30;2.55;;;5.10;94.40;;;;;;5053543;28;20041;-81
2022/01/05 02:36:00;;;;;;;13.68;1.58;;;5.10;94.30;;;;;;5053515;28;20029;-81
2022/01/05 02:38:26;;;;;;;14.55;1.48;;;5.00;94.30;;;;;;5052681;28;20035;-82
2022/01/05 02:40:53;;;;;;;12.38;1.25;;;5.00;94.20;;;;;;5052800;28;20036;-81
2022/01/05 02:43:18;;;;;;;11.88;1.63;;;5.00;94.20;;;;;;5044666;28;20037;-81
2022/01/05 02:45:44;;;;;;;14.63;1.30;;;5.00;94.10;;;;;;5050397;28;20061;-81
2022/01/05 02:48:10;;;;;;;12.38;1.35;;;5.00;94.10;;;;;;5052902;28;20091;-81
2022/01/05 02:50:36;;;;;;;11.45;1.45;;;5.00;93.90;;;;;;5052262;28;20029;-81
2022/01/05 02:53:02;;;;;;;13.10;1.40;;;5.00;93.70;;;;;;5053004;28;20057;-82
2022/01/05 02:55:28;;;;;;;17.88;1.77;;;5.00;93.50;;;;;;5052657;28;20029;-81
2022/01/05 02:57:53;;;;;;;9.45;1.50;;;5.00;93.40;;;;;;5052908;28;20087;-81
2022/01/05 03:00:19;;;;;;;14.45;1.10;;;5.00;93.20;;;;;;5051491;28;20053;-81
2022/01/05 03:02:45;;;;;;;13.05;1.17;;;5.00;93.20;;;;;;5053284;28;20051;-82
2022/01/05 03:05:11;;;;;;;11.30;1.23;;;5.00;93.00;;;;;;5052956;28;20487;-82
2022/01/05 03:07:40;;;;;;;15.18;1.35;;;4.90;93.00;;;;;;5052904;28;20472;-83
2022/01/05 03:10:08;;;;;;;10.00;1.52;;;4.80;93.20;;;;;;5052235;28;20460;-82
2022/01/05 03:12:34;;;;;;;13.45;1.40;;;4.80;93.40;;;;;;5052874;28;20033;-83
2022/01/05 03:15:00;;;;;;;9.68;1.38;;;4.80;93.50;;;;;;5052540;28;20036;-82
2022/01/05 03:17:25;;;;;;;12.88;1.35;;;4.80;93.60;;;;;;5052820;28;20025;-83
2022/01/05 03:19:51;;;;;;;13.77;1.25;;;4.80;93.90;;;;;;5052510;28;20033;-82
2022/01/05 03:22:17;;;;;;;11.63;0.93;;;4.70;93.70;;;;;;5052894;28;20033;-81
2022/01/05 03:24:42;;;;;;;14.75;1.45;;;4.70;93.80;;;;;;5052345;28;20028;-81
2022/01/05 03:27:08;;;;;;;9.88;1.48;;;4.70;93.80;;;;;;5055809;28;20037;-82
2022/01/05 03:29:33;;;;;;;13.20;1.25;;;4.70;93.70;;;;;;5055096;28;20048;-82
2022/01/05 03:31:59;;;;;;;8.32;1.10;;;4.70;93.70;;;;;;5052508;28;20718;-82
2022/01/05 03:34:26;;;;;;;15.85;1.20;;;4.70;93.50;;;;;;5053061;28;20029;-82
2022/01/05 03:36:53;;;;;;;10.68;0.93;;;4.60;93.40;;;;;;5052250;28;20040;-82
2022/01/05 03:39:19;;;;;;;10.85;1.48;;;4.60;93.50;;;;;;5013142;28;20552;-83
2022/01/05 03:41:44;;;;;;;9.07;1.20;;;4.60;93.40;;;;;;5051617;28;20067;-82
2022/01/05 03:44:11;;;;;;;8.23;0.95;;;4.60;93.30;;;;;;5052884;28;20036;-82
2022/01/05 03:46:36;;;;;;;12.98;1.60;;;4.70;93.30;;;;;;5052189;28;20071;-82
2022/01/05 03:49:02;;;;;;;18.02;1.90;;;4.60;93.40;;;;;;5052333;28;20057;-81
2022/01/05 03:51:28;;;;;;;14.18;1.30;;;4.60;93.50;;;;;;5052438;28;20057;-82
2022/01/05 03:53:53;;;;;;;14.93;1.40;;;4.60;93.60;;;;;;5052281;28;20436;-82
2022/01/05 03:56:19;;;;;;;12.63;1.38;;;4.60;93.80;;;;;;5051927;28;20051;-82
2022/01/05 03:58:45;;;;;;;14.50;1.95;;;4.60;93.90;;;;;;5053028;28;20115;-82
2022/01/05 04:01:10;;;;;;;12.15;1.67;;;4.50;94.20;;;;;;5055933;28;20063;-81
2022/01/05 04:03:36;;;;;;;7.20;1.10;;;4.50;94.30;;;;;;5056492;28;20060;-81
2022/01/05 04:06:01;;;;;;;16.58;1.55;;;4.60;94.30;;;;;;5055785;28;20430;-81
2022/01/05 04:08:27;;;;;;;14.32;1.90;;;4.60;94.40;;;;;;5056196;28;20033;-81
2022/01/05 04:10:53;;;;;;;15.93;1.58;;;4.60;94.50;;;;;;5055473;28;20040;-81
2022/01/05 04:13:19;;;;;;;10.30;1.50;;;4.60;94.60;;;;;;5056070;28;20063;-81
2022/01/05 04:15:45;;;;;;;12.82;1.80;;;4.60;94.70;;;;;;5055683;28;20407;-80
2022/01/05 04:18:10;;;;;;;13.65;1.08;;;4.50;94.50;;;;;;5055398;28;20025;-80
2022/01/05 04:20:36;;;;;;;12.68;1.88;;;4.50;94.60;;;;;;5055229;28;20439;-80
2022/01/05 04:23:02;;;;;;;16.00;1.83;;;4.50;94.60;;;;;;5055968;28;20056;-80
2022/01/05 04:25:27;;;;;;;16.38;1.92;;;4.60;94.70;;;;;;5061707;28;20033;-80
2022/01/05 04:27:53;;;;;;;13.90;1.58;;;4.50;94.70;;;;;;5058688;28;20516;-81
2022/01/05 04:30:19;;;;;;;16.27;1.40;;;4.50;94.80;;;;;;5055381;28;20404;-80
2022/01/05 04:32:44;;;;;;;10.65;1.58;;;4.50;94.80;;;;;;5055681;28;20032;-81
2022/01/05 04:35:13;;;;;;;14.30;2.28;;;4.60;94.90;;;;;;5055628;28;20017;-81
2022/01/05 04:37:40;;;;;;;15.07;1.50;;;4.50;94.80;;;;;;5055143;28;20489;-81
2022/01/05 04:40:07;;;;;;;13.63;1.75;;;4.60;94.90;;;;;;5055397;28;20037;-81
2022/01/05 04:42:33;;;;;;;11.55;1.30;;;4.60;95.00;;;;;;5055365;28;20033;-81
2022/01/05 04:44:59;;;;;;;14.98;1.38;;;4.60;94.90;;;;;;5055335;28;20040;-81
2022/01/05 04:47:24;;;;;;;16.25;2.10;;;4.60;94.80;;;;;;5035898;28;20412;-81
2022/01/05 04:49:50;;;;;;;13.52;1.92;;;4.60;94.90;;;;;;5050338;28;20043;-81
2022/01/05 04:52:16;;;;;;;16.70;1.60;;;4.60;95.00;;;;;;5054900;28;20047;-80
2022/01/05 04:54:41;;;;;;;16.77;1.52;;;4.60;95.20;;;;;;5055307;28;20128;-80
2022/01/05 04:57:07;;;;;;;14.65;1.80;;;4.60;95.30;;;;;;5054643;28;20036;-81
2022/01/05 04:59:33;;;;;;;15.73;1.30;;;4.60;95.30;;;;;;5054837;28;20048;-80
2022/01/05 05:01:59;;;;;;;12.13;1.38;;;4.60;95.50;;;;;;5054724;28;20094;-80
2022/01/05 05:04:25;;;;;;;14.70;1.90;;;4.60;95.70;;;;;;5055641;28;20024;-80
2022/01/05 05:06:51;;;;;;;11.55;1.52;;;4.60;95.80;;;;;;5054598;28;20029;-80
2022/01/05 05:09:17;;;;;;;13.63;1.85;;;4.60;95.90;;;;;;5054817;28;20388;-81
2022/01/05 05:11:42;;;;;;;12.27;1.65;;;4.60;95.90;;;;;;5054631;28;20112;-81
2022/01/05 05:14:09;;;;;;;20.02;2.30;;;4.60;95.90;;;;;;5055047;28;20112;-81
2022/01/05 05:16:35;;;;;;;18.10;2.03;;;4.60;96.30;;;;;;5054540;28;20113;-81
2022/01/05 05:19:01;;;;;;;12.93;1.58;;;4.60;96.10;;;;;;5055076;28;20064;-82
2022/01/05 05:21:26;;;;;;;17.88;1.65;;;4.60;96.10;;;;;;5054556;28;20033;-82
2022/01/05 05:23:52;;;;;;;17.10;2.03;;;4.60;96.10;;;;;;5060901;28;20026;-82
2022/01/05 05:26:18;;;;;;;20.17;2.00;;;4.60;96.00;;;;;;5054520;28;20029;-82
2022/01/05 05:28:43;;;;;;;11.45;2.25;;;4.70;96.10;;;;;;5054092;28;20408;-80
2022/01/05 05:31:09;;;;;;;18.98;1.85;;;4.70;96.00;;;;;;5054420;28;20033;-81
2022/01/05 05:33:35;;;;;;;16.95;1.88;;;4.70;96.10;;;;;;5054615;28;20376;-80
2022/01/05 05:36:02;;;;;;;17.73;2.33;;;4.70;96.10;;;;;;5054194;28;20021;-80
2022/01/05 05:38:28;;;;;;;11.32;1.70;;;4.80;96.20;;;;;;5054596;28;20029;-80
2022/01/05 05:40:54;;;;;;;16.33;1.85;;;4.80;96.20;;;;;;5053975;28;20083;-80
2022/01/05 05:43:20;;;;;;;10.93;1.70;;;4.80;96.20;;;;;;5053903;28;20028;-79
2022/01/05 05:45:45;;;;;;;14.48;1.65;;;4.80;96.30;;;;;;5054438;28;20053;-79
2022/01/05 05:48:11;;;;;;;13.48;2.38;;;4.80;96.50;;;;;;5054425;28;20456;-79
2022/01/05 05:50:37;;;;;;;12.90;1.83;;;4.80;96.60;;;;;;5053544;28;20029;-79
2022/01/05 05:53:02;;;;;;;15.98;1.83;;;4.80;96.70;;;;;;5054237;28;20025;-81
2022/01/05 05:55:28;;;;;;;19.75;2.55;;;4.80;96.80;;;;;;5054022;28;20460;-81
2022/01/05 05:57:54;;;;;;;8.32;1.80;;;4.90;97.00;;;;;;5053921;28;20066;-81
2022/01/05 06:00:19;;;;;;;12.48;2.40;;;4.90;96.90;;;;;;5021277;28;20042;-80
2022/01/05 06:02:45;;;;;;;14.98;2.97;;;4.90;97.00;;;;;;5015572;28;20033;-82
2022/01/05 06:05:11;;;;;;;19.08;2.22;;;4.90;97.10;;;;;;5014751;28;20030;-82
2022/01/05 06:07:36;;;;;;;19.13;2.03;;;5.00;97.20;;;;;;5015892;28;20022;-81
2022/01/05 06:10:03;;;;;;;19.15;2.53;;;4.90;97.10;;;;;;5029517;28;20111;-81
2022/01/05 06:12:28;;;;;;;14.88;1.77;;;5.00;97.20;;;;;;5032672;28;20053;-81
2022/01/05 06:14:54;;;;;;;17.58;1.73;;;5.00;97.30;;;;;;5020110;28;20080;-82
2022/01/05 06:17:20;;;;;;;13.52;1.92;;;5.00;97.30;;;;;;5020808;28;20034;-82
2022/01/05 06:19:46;;;;;;;19.60;2.55;;;5.00;97.30;;;;;;5022332;28;20454;-83
2022/01/05 06:22:12;;;;;;;17.58;2.22;;;5.10;97.30;;;;;;5031009;28;20037;-82
2022/01/05 06:24:40;;;;;;;23.23;2.47;;;5.10;97.40;;;;;;5033603;28;20033;-82
2022/01/05 06:27:09;;;;;;;25.27;2.80;;;5.10;97.40;;;;;;5032010;28;20052;-82
2022/01/05 06:29:38;;;;;;;17.33;2.67;;;5.10;97.30;;;;;;5022984;28;20477;-82
2022/01/05 06:32:05;;;;;;;14.13;2.33;;;5.10;97.10;;;;;;5040673;28;20037;-82
2022/01/05 06:34:30;;;;;;;19.05;2.42;;;5.10;97.00;;;;;;5053526;28;20029;-82
2022/01/05 06:36:56;;;;;;;14.25;1.98;;;5.10;97.10;;;;;;5053231;28;20029;-83
2022/01/05 06:39:21;;;;;;;12.40;1.23;;;5.20;97.10;;;;;;5053537;28;20087;-83
2022/01/05 06:41:47;;;;;;;19.02;2.53;;;5.10;97.10;;;;;;5053618;28;20045;-83
2022/01/05 06:44:13;;;;;;;17.38;2.38;;;5.10;96.90;;;;;;5053240;28;20025;-83
2022/01/05 06:46:38;;;;;;;14.70;2.20;;;5.10;97.10;;;;;;5053770;28;20060;-84
2022/01/05 06:49:04;;;;;;;13.82;1.70;;;5.00;97.20;;;;;;5053801;28;20090;-83
2022/01/05 06:51:30;;;;;;;14.57;2.00;;;5.00;97.50;;;;;;5053722;28;20037;-84
2022/01/05 06:53:56;;;;;;;16.30;1.75;;;5.10;97.20;;;;;;5052970;28;20041;-83
2022/01/05 06:56:21;;;;;;;15.00;2.28;;;5.10;97.20;;;;;;5053526;28;20047;-84
2022/01/05 06:58:47;;;;;;;10.90;1.67;;;5.10;97.20;;;;;;5052711;28;20468;-82
2022/01/05 07:01:13;;;;;;;16.73;1.50;;;5.20;97.20;;;;;;5052909;28;20045;-83
2022/01/05 07:03:38;;;;;;;14.45;1.80;;;5.10;97.00;;;;;;5053605;28;20025;-82
2022/01/05 07:06:04;;;;;;;17.85;1.83;;;5.20;97.00;;;;;;5052982;28;20031;-82
2022/01/05 07:08:30;;;;;;;20.33;3.35;;;5.20;97.40;;;;;;5053143;28;20033;-81
2022/01/05 07:10:56;;;;;;;22.55;2.10;;;5.10;97.40;;;;;;5052665;28;20025;-83
2022/01/05 07:13:22;;;;;;;15.45;2.20;;;5.20;97.70;;;;;;5053367;28;20072;-83
2022/01/05 07:15:48;;;;;;;13.45;1.80;;;5.10;97.80;;;;;;5054197;28;20079;-83
2022/01/05 07:18:14;;;;;;;12.30;1.55;;;5.10;97.90;;;;;;5063757;28;20056;-82
2022/01/05 07:20:40;;;;;;;17.23;2.30;;;5.10;97.90;;;;;;5059473;28;20048;-82
2022/01/05 07:23:06;;;;;;;18.23;2.58;;;5.10;97.90;;;;;;5052803;28;20452;-81
2022/01/05 07:25:31;;;;;;;13.75;1.85;;;5.10;97.80;;;;;;5052377;28;20111;-78
2022/01/05 07:27:57;;;;;;;13.73;1.75;;;5.20;97.90;;;;;;5053194;28;20102;-78
2022/01/05 07:30:23;;;;;;;16.38;2.67;;;5.20;97.90;;;;;;5052338;28;20059;-82
2022/01/05 07:32:48;;;;;;;19.25;2.38;;;5.20;97.70;;;;;;5054315;28;20028;-78
2022/01/05 07:35:14;;;;;;;17.75;2.10;;;5.20;97.70;;;;;;5057388;28;20025;-78
2022/01/05 07:37:40;;;;;;;20.05;1.77;;;5.30;97.80;;;;;;5056372;28;20392;-78
2022/01/05 07:40:06;;;;;;;19.42;2.10;;;5.30;97.80;;;;;;5056319;28;20083;-78
2022/01/05 07:42:34;;;;;;;15.52;2.70;;;5.30;97.70;;;;;;5056347;28;20040;-78
2022/01/05 07:45:01;;;;;;;12.07;1.55;;;5.30;97.60;;;;;;5030109;28;20032;-79
2022/01/05 07:47:27;;;;;;;19.85;2.15;;;5.30;97.50;;;;;;5056476;28;20030;-78
2022/01/05 07:49:52;;;;;;;20.10;2.53;;;5.30;97.70;;;;;;5056614;28;20525;-79
2022/01/05 07:52:18;;;;;;;16.27;1.98;;;5.30;97.80;;;;;;5056919;28;20052;-78
2022/01/05 07:54:44;;;;;;;20.50;2.42;;;5.30;97.70;;;;;;5056202;28;20485;-78
2022/01/05 07:57:09;;;;;;;16.88;1.60;;;5.30;98.00;;;;;;5056452;28;20040;-78
2022/01/05 07:59:35;;;;;;;25.60;2.45;;;5.30;98.10;;;;;;5056354;28;20412;-83
2022/01/05 08:02:00;;;;;;;13.32;1.70;;;5.40;98.20;;;;;;5056050;28;20095;-80
2022/01/05 08:04:26;;;;;;;16.83;2.00;;;5.40;98.10;;;;;;5056613;28;20025;-79
2022/01/05 08:06:52;;;;;;;13.88;1.80;;;5.40;98.20;;;;;;5055377;28;20028;-80
2022/01/05 08:09:17;;;;;;;18.92;2.55;;;5.40;98.10;;;;;;5056505;28;20017;-81
2022/01/05 08:11:43;;;;;;;18.60;2.50;;;5.40;98.20;;;;;;5055740;28;20112;-85
2022/01/05 08:14:09;;;;;;;21.30;2.00;;;5.40;98.40;;;;;;5044739;28;20037;-83
2022/01/05 08:16:34;;;;;;;16.08;1.65;;;5.40;98.70;;;;;;5052553;28;20029;-82
2022/01/05 08:19:00;;;;;;;18.27;1.83;;;5.40;98.80;;;;;;5039420;28;20025;-83
2022/01/05 08:21:25;;;;;;;15.98;2.22;;;5.40;99.10;;;;;;5043920;28;20041;-84
2022/01/05 08:23:51;;;;;;;19.55;2.30;;;5.40;99.40;;;;;;5036476;28;20468;-82
2022/01/05 08:26:17;;;;;;;17.83;2.30;;;5.40;99.80;;;;;;5041310;28;20033;-82
2022/01/05 08:28:42;;;;;;;18.00;2.33;;;5.40;99.90;;;;;;5037571;28;20017;-81
2022/01/05 08:31:08;;;;;;;20.67;1.98;;;5.30;99.90;;;;;;5042124;28;20036;-80
2022/01/05 08:33:34;;;;;;;19.65;2.50;;;5.30;99.90;;;;;;5038484;28;20087;-84
2022/01/05 08:36:02;;;;;;;17.85;1.88;;;5.30;99.90;;;;;;5041061;28;20033;-83
2022/01/05 08:38:28;;;;;;;30.25;2.58;;;5.30;99.90;;;;;;5036606;28;20072;-82
2022/01/05 08:40:54;;;;;;;19.50;2.60;;;5.30;99.90;;;;;;5042260;28;20043;-83
2022/01/05 08:43:20;;;;;;;16.30;2.03;;;5.30;99.90;;;;;;5034597;28;20112;-83
2022/01/05 08:45:47;;;;;;;26.50;2.67;;;5.30;99.90;;;;;;5047231;28;20408;-79
2022/01/05 08:48:13;;;;;;;27.63;3.10;;;5.30;99.90;;;;;;5055349;28;20024;-81
2022/01/05 08:50:39;;;;;;;20.30;3.13;;;5.30;99.90;;;;;;5054877;28;20387;-82
2022/01/05 08:53:06;;;;;;;27.40;3.08;;;5.30;99.90;;;;;;5055948;28;20115;-79
2022/01/05 08:55:36;;;;;;;24.25;2.47;;;5.30;99.90;;;;;;5055437;28;20048;-79
2022/01/05 08:58:01;;;;;;;23.83;2.15;;;5.30;99.90;;;;;;5037329;28;20088;-78
2022/01/05 09:00:27;;;;;;;20.67;2.30;;;5.30;99.90;;;;;;5040363;28;20061;-78
2022/01/05 09:02:53;;;;;;;24.33;2.88;;;5.30;99.90;;;;;;5037864;28;20038;-77
2022/01/05 09:05:19;;;;;;;15.45;1.95;;;5.20;99.90;;;;;;5036817;28;20094;-76
2022/01/05 09:07:45;;;;;;;22.23;2.20;;;5.20;99.90;;;;;;5038623;28;20113;-77
2022/01/05 09:10:11;;;;;;;19.13;2.53;;;5.20;99.90;;;;;;5050862;28;20044;-76
2022/01/05 09:12:37;;;;;;;17.13;2.38;;;5.20;99.90;;;;;;5055207;28;20029;-76
2022/01/05 09:15:04;;;;;;;16.25;2.65;;;5.20;99.90;;;;;;5068299;28;20033;-76
2022/01/05 09:17:30;;;;;;;20.02;2.92;;;5.20;99.90;;;;;;5054552;28;20078;-76
2022/01/05 09:19:56;;;;;;;31.50;3.78;;;5.10;99.90;;;;;;5053712;28;20039;-75
2022/01/05 09:22:22;;;;;;;16.70;2.88;;;5.10;99.90;;;;;;5054666;28;20028;-76
2022/01/05 09:24:49;;;;;;;15.52;1.92;;;5.10;99.90;;;;;;5055034;28;20392;-76
2022/01/05 09:27:16;;;;;;;27.23;2.13;;;5.10;99.90;;;;;;5054344;28;20060;-75
2022/01/05 09:29:41;;;;;;;20.70;2.50;;;5.20;99.90;;;;;;5053970;28;20033;-75
2022/01/05 09:32:09;;;;;;;21.33;2.15;;;5.20;99.90;;;;;;5054827;28;20043;-75
2022/01/05 09:34:36;;;;;;;23.58;2.88;;;5.20;99.90;;;;;;5044794;28;20033;-74
2022/01/05 09:37:09;;;;;;;20.20;2.25;;;5.20;99.90;;;;;;5038708;28;20040;-76
2022/01/05 09:42:19;;;;;;;21.25;3.13;;;5.30;99.90;;;;;;5036251;28;20052;-74
2022/01/05 09:44:46;;;;;;;20.55;2.22;;;5.30;99.90;;;;;;5037975;28;20037;-74
2022/01/05 09:47:11;;;;;;;22.00;2.58;;;5.30;99.90;;;;;;5033515;28;20040;-75
2022/01/05 09:49:57;;;;;;;13.73;2.03;;;5.30;99.90;;;;;;5039965;28;20022;-75
2022/01/05 09:52:24;;;;;;;16.20;1.58;;;5.30;99.90;;;;;;5041675;28;20025;-77
2022/01/05 09:54:50;;;;;;;24.60;2.50;;;5.40;99.90;;;;;;5052135;28;20071;-75
2022/01/05 09:57:19;;;;;;;23.23;2.40;;;5.40;99.90;;;;;;5036037;28;20037;-73
2022/01/05 09:59:45;;;;;;;15.23;1.88;;;5.40;99.90;;;;;;5050316;28;20488;-74
2022/01/05 10:02:12;;;;;;;15.90;2.03;;;5.40;99.90;;;;;;5053609;28;20091;-74
2022/01/05 10:04:40;;;;;;;19.05;2.30;;;5.50;99.90;;;;;;5053422;28;20147;-74
2022/01/05 10:07:09;;;;;;;21.63;2.42;;;5.50;99.90;;;;;;5052866;28;20064;-77
2022/01/05 10:09:39;;;;;;;18.42;2.10;;;5.50;99.90;;;;;;5048372;28;20037;-73
2022/01/05 10:12:06;;;;;;;21.73;2.83;;;5.50;99.90;;;;;;5053190;28;20040;-74
2022/01/05 10:14:32;;;;;;;22.67;3.95;;;5.50;99.90;;;;;;5052913;28;20130;-75
2022/01/05 10:17:01;;;;;;;16.10;2.58;;;5.50;99.90;;;;;;5052660;28;20388;-75
2022/01/05 10:19:27;;;;;;;18.73;3.03;;;5.50;99.90;;;;;;5052853;28;20472;-74
2022/01/05 10:21:52;;;;;;;20.77;2.28;;;5.50;99.90;;;;;;5052818;28;20048;-73
2022/01/05 10:24:47;;;;;;;17.00;2.40;;;5.60;99.90;;;;;;5053791;28;20032;-75
2022/01/05 10:27:19;;;;;;;19.45;2.60;;;5.60;99.90;;;;;;5053366;28;20044;-73
2022/01/05 10:29:58;;;;;;;18.83;2.65;;;5.60;99.90;;;;;;5053318;28;20110;-73
2022/01/05 10:32:26;;;;;;;25.17;2.67;;;5.70;99.90;;;;;;5049119;28;20111;-73
2022/01/05 10:35:10;;;;;;;19.23;2.05;;;5.70;99.90;;;;;;5053332;28;20403;-75
2022/01/05 10:37:40;;;;;;;22.50;3.40;;;5.70;99.90;;;;;;5052218;28;20036;-73
2022/01/05 10:40:09;;;;;;;21.10;2.67;;;5.80;99.90;;;;;;5053107;28;20059;-74
2022/01/05 10:42:36;;;;;;;22.52;3.33;;;5.80;99.90;;;;;;5052945;28;20036;-74
2022/01/05 10:45:05;;;;;;;21.75;2.83;;;5.80;99.90;;;;;;5052794;28;20025;-74
2022/01/05 10:47:33;;;;;;;26.17;2.95;;;5.90;99.90;;;;;;5024921;28;20041;-74
2022/01/05 10:49:58;;;;;;;23.15;2.55;;;5.90;99.90;;;;;;5013966;28;20048;-74
2022/01/05 10:52:28;;;;;;;24.48;3.25;;;5.90;99.90;;;;;;5030343;28;20493;-77
2022/01/05 10:55:06;;;;;;;20.08;2.42;;;5.90;99.90;;;;;;5028553;28;20128;-75
2022/01/05 10:57:32;;;;;;;26.88;3.33;;;6.00;99.90;;;;;;5019776;28;20022;-74
2022/01/05 10:59:58;;;;;;;27.98;3.17;;;6.00;99.90;;;;;;5026817;28;20382;-75
2022/01/05 11:02:27;;;;;;;20.75;2.10;;;6.10;99.90;;;;;;5028837;28;20091;-75
2022/01/05 11:04:55;;;;;;;30.40;3.63;;;6.10;99.90;;;;;;5028053;28;20034;-77
2022/01/05 11:07:23;;;;;;;32.72;3.60;;;6.10;99.90;;;;;;5027939;28;20045;-74
2022/01/05 11:09:53;;;;;;;29.02;2.53;;;6.20;99.90;;;;;;5021107;28;20460;-75
2022/01/05 11:12:19;;;;;;;18.90;2.47;;;6.10;99.90;;;;;;5051832;28;20036;-75
2022/01/05 11:14:44;;;;;;;25.52;3.40;;;6.20;99.90;;;;;;5052208;28;20017;-75
2022/01/05 11:17:17;;;;;;;22.17;2.60;;;6.20;99.90;;;;;;5051226;28;20593;-76
2022/01/05 11:19:43;;;;;;;23.67;2.63;;;6.20;99.90;;;;;;5052944;28;20068;-76
2022/01/05 11:22:14;;;;;;;14.88;2.00;;;6.30;99.90;;;;;;5050999;28;20075;-76
2022/01/05 11:24:43;;;;;;;18.90;2.60;;;6.30;99.90;;;;;;5048563;28;20116;-74
2022/01/05 11:27:11;;;;;;;22.80;2.70;;;6.30;99.90;;;;;;5044108;28;20037;-75
2022/01/05 11:29:38;;;;;;;22.58;2.42;;;6.30;99.90;;;;;;5049993;28;20408;-73
2022/01/05 11:32:06;;;;;;;15.07;2.22;;;6.30;99.90;;;;;;5051766;28;20139;-73
2022/01/05 11:34:32;;;;;;;18.65;2.10;;;6.30;99.90;;;;;;5051193;28;20377;-74
2022/01/05 11:37:01;;;;;;;20.35;2.50;;;6.30;99.90;;;;;;5051632;28;20024;-73
2022/01/05 11:39:28;;;;;;;13.50;1.70;;;6.30;99.90;;;;;;5050992;28;20107;-73
2022/01/05 11:41:55;;;;;;;16.73;1.80;;;6.30;99.90;;;;;;5050734;28;20167;-73
2022/01/05 11:44:20;;;;;;;18.92;2.17;;;6.40;99.90;;;;;;5047522;28;20030;-73
2022/01/05 11:46:46;;;;;;;18.67;2.40;;;6.40;99.90;;;;;;5040328;28;20025;-74
2022/01/05 11:49:15;;;;;;;15.98;2.38;;;6.40;99.90;;;;;;5042301;28;20366;-74
2022/01/05 11:51:41;;;;;;;18.05;2.15;;;6.40;99.90;;;;;;5042879;28;20025;-74
2022/01/05 11:54:18;;;;;;;14.38;2.10;;;6.40;99.90;;;;;;5050779;28;20040;-75
2022/01/05 11:56:57;;;;;;;11.25;1.27;;;6.50;99.90;;;;;;5051555;28;20372;-74
2022/01/05 11:59:36;;;;;;;10.05;1.15;;;6.40;99.90;;;;;;5050373;28;20055;-75
2022/01/05 12:02:16;;;;;;;12.90;1.52;;;6.50;99.90;;;;;;5046307;28;20119;-75
2022/01/05 12:04:56;;;;;;;16.02;1.60;;;6.50;99.90;;;;;;5050825;28;20476;-78
2022/01/05 12:07:45;;;;;;;13.85;1.33;;;6.60;99.90;;;;;;5051107;28;20067;-76
2022/01/05 12:10:22;;;;;;;17.95;1.90;;;6.60;99.90;;;;;;5046826;28;20033;-78
2022/01/05 12:13:05;;;;;;;13.95;1.67;;;6.70;99.90;;;;;;5050023;28;20032;-77
2022/01/05 12:15:43;;;;;;;24.88;2.80;;;6.70;99.90;;;;;;5051141;28;20380;-76
2022/01/05 12:18:20;;;;;;;20.88;2.33;;;6.70;99.90;;;;;;5051408;28;20040;-75
2022/01/05 12:20:46;;;;;;;17.20;2.92;;;6.70;99.90;;;;;;5050887;28;20033;-76
2022/01/05 12:23:26;;;;;;;23.00;2.60;;;6.70;99.90;;;;;;5054629;28;20032;-77
2022/01/05 12:26:02;;;;;;;24.70;3.15;;;6.80;99.90;;;;;;5054890;28;20056;-77
2022/01/05 12:28:32;;;;;;;26.45;3.33;;;6.80;99.90;;;;;;5049715;28;20021;-77
2022/01/05 12:30:58;;;;;;;27.05;2.78;;;6.80;99.90;;;;;;5044544;28;20026;-75
2022/01/05 12:33:25;;;;;;;21.98;3.10;;;6.80;99.90;;;;;;5039871;28;20445;-76
2022/01/05 12:35:55;;;;;;;18.00;2.85;;;6.80;99.90;;;;;;5040402;28;20033;-76
2022/01/05 12:38:50;;;;;;;20.08;2.53;;;6.90;99.90;;;;;;5040401;28;20535;-73
2022/01/05 12:41:29;;;;;;;20.38;2.50;;;6.90;99.90;;;;;;5032696;28;20042;-75
2022/01/05 12:43:57;;;;;;;27.05;3.75;;;6.90;99.90;;;;;;5043476;28;20025;-72
2022/01/05 12:46:37;;;;;;;27.23;2.88;;;7.00;99.90;;;;;;5044818;28;20431;-72
2022/01/05 12:49:11;;;;;;;19.30;2.50;;;7.00;99.90;;;;;;5038234;28;20084;-73